createdAt,value
2018-12-05T02:55:09.789Z,1020.43
2018-12-05T02:56:10.396Z,1020.36
2018-12-05T02:57:11.047Z,1020.41
2018-12-05T02:58:11.725Z,1020.46
2018-12-05T02:59:12.502Z,1020.46
2018-12-05T03:00:13.169Z,1020.49
2018-12-05T03:01:13.846Z,1020.49
2018-12-05T03:02:14.534Z,1020.46
2018-12-05T03:03:15.203Z,1020.49
2018-12-05T03:04:16.026Z,1020.55
2018-12-05T03:05:16.699Z,1020.51
2018-12-05T03:06:17.363Z,1020.51
2018-12-05T03:07:18.057Z,1020.50
2018-12-05T03:08:18.726Z,1020.52
2018-12-05T03:09:19.418Z,1020.45
2018-12-05T03:10:20.233Z,1020.52
2018-12-05T03:11:20.918Z,1020.52
2018-12-05T03:12:21.644Z,1020.55
2018-12-05T03:13:22.436Z,1020.53
2018-12-05T03:14:23.120Z,1020.50
2018-12-05T03:15:23.970Z,1020.49
2018-12-05T03:16:24.623Z,1020.45
2018-12-05T03:17:25.680Z,1020.42
2018-12-05T03:18:26.442Z,1020.41
2018-12-05T03:19:28.194Z,1020.49
2018-12-05T03:20:28.850Z,1020.41
2018-12-05T03:21:29.533Z,1020.38
2018-12-05T03:22:30.358Z,1020.35
2018-12-05T03:23:31.028Z,1020.28
2018-12-05T03:24:31.809Z,1020.27
2018-12-05T03:25:32.506Z,1020.25
2018-12-05T03:26:33.204Z,1020.26
2018-12-05T03:27:33.845Z,1020.26
2018-12-05T03:28:34.519Z,1020.34
2018-12-05T03:29:35.226Z,1020.26
2018-12-05T03:30:35.951Z,1020.30
2018-12-05T03:31:36.622Z,1020.26
2018-12-05T03:32:37.294Z,1020.23
2018-12-05T03:33:38.140Z,1020.23
2018-12-05T03:34:38.814Z,1020.23
2018-12-05T03:35:39.474Z,1020.27
2018-12-05T03:36:41.336Z,1020.26
2018-12-05T03:37:42.031Z,1020.28
2018-12-05T03:38:42.684Z,1020.35
2018-12-05T03:39:43.371Z,1020.35
2018-12-05T03:40:44.026Z,1020.32
2018-12-05T03:41:44.717Z,1020.38
2018-12-05T03:42:45.469Z,1020.36
2018-12-05T03:43:46.085Z,1020.36
2018-12-05T03:44:46.890Z,1020.35
2018-12-05T03:45:47.565Z,1020.32
2018-12-05T03:46:48.243Z,1020.34
2018-12-05T03:47:48.912Z,1020.39
2018-12-05T03:48:49.699Z,1020.35
2018-12-05T03:49:50.402Z,1020.34
2018-12-05T03:50:51.043Z,1020.38
2018-12-05T03:51:51.748Z,1020.35
2018-12-05T03:52:52.473Z,1020.39
2018-12-05T03:53:53.169Z,1020.36
2018-12-05T03:54:53.920Z,1020.32
2018-12-05T03:55:54.605Z,1020.32
2018-12-05T03:56:56.394Z,1020.34
2018-12-05T03:57:58.037Z,1020.33
2018-12-05T03:58:58.766Z,1020.38
2018-12-05T03:59:59.417Z,1020.33
2018-12-05T04:01:00.102Z,1020.40
2018-12-05T04:02:01.881Z,1020.36
2018-12-05T04:03:02.518Z,1020.40
2018-12-05T04:04:03.196Z,1020.42
2018-12-05T04:05:03.871Z,1020.38
2018-12-05T04:06:04.544Z,1020.37
2018-12-05T04:07:05.400Z,1020.37
2018-12-05T04:08:06.069Z,1020.31
2018-12-05T04:09:06.823Z,1020.33
2018-12-05T04:10:07.566Z,1020.33
2018-12-05T04:11:09.291Z,1020.34
2018-12-05T04:12:09.969Z,1020.36
2018-12-05T04:13:10.656Z,1020.33
2018-12-05T04:14:13.533Z,1020.34
2018-12-05T04:15:14.215Z,1020.32
2018-12-05T04:16:15.058Z,1020.34
2018-12-05T04:17:15.750Z,1020.38
2018-12-05T04:18:16.407Z,1020.33
2018-12-05T04:19:17.139Z,1020.37
2018-12-05T04:20:17.816Z,1020.40
2018-12-05T04:21:18.424Z,1020.43
2018-12-05T04:22:19.216Z,1020.42
2018-12-05T04:23:19.896Z,1020.46
2018-12-05T04:24:21.683Z,1020.40
2018-12-05T04:25:22.554Z,1020.38
2018-12-05T04:26:30.357Z,1020.37
2018-12-05T04:27:31.039Z,1020.40
2018-12-05T04:28:32.858Z,1020.40
2018-12-05T04:29:33.739Z,1020.40
2018-12-05T04:30:36.717Z,1020.37
2018-12-05T04:31:37.345Z,1020.40
2018-12-05T04:32:38.224Z,1020.39
2018-12-05T04:33:38.922Z,1020.38
2018-12-05T04:34:39.565Z,1020.40
2018-12-05T04:35:40.382Z,1020.42
2018-12-05T04:36:41.067Z,1020.42
2018-12-05T04:37:41.926Z,1020.47
2018-12-05T04:38:42.620Z,1020.42
2018-12-05T04:39:43.476Z,1020.40
2018-12-05T04:40:44.149Z,1020.44
2018-12-05T04:41:44.938Z,1020.41
2018-12-05T04:42:45.631Z,1020.40
2018-12-05T04:43:46.513Z,1020.43
2018-12-05T04:44:47.191Z,1020.44
2018-12-05T04:45:48.038Z,1020.49
2018-12-05T04:46:48.727Z,1020.47
2018-12-05T04:47:51.584Z,1020.52
2018-12-05T04:48:52.281Z,1020.49
2018-12-05T04:49:53.087Z,1020.49
2018-12-05T04:50:53.775Z,1020.45
2018-12-05T04:51:54.630Z,1020.49
2018-12-05T04:52:55.306Z,1020.45
2018-12-05T04:53:56.293Z,1020.41
2018-12-05T04:54:56.953Z,1020.39
2018-12-05T04:55:58.102Z,1020.33
2018-12-05T04:56:59.607Z,1020.33
2018-12-05T04:58:00.285Z,1020.32
2018-12-05T04:59:02.224Z,1020.27
2018-12-05T05:00:02.874Z,1020.25
2018-12-05T05:01:03.633Z,1020.18
2018-12-05T05:02:04.309Z,1020.22
2018-12-05T05:03:05.061Z,1020.17
2018-12-05T05:04:05.739Z,1020.17
2018-12-05T05:05:06.502Z,1020.19
2018-12-05T05:06:07.190Z,1020.14
2018-12-05T05:07:07.947Z,1020.20
2018-12-05T05:08:08.623Z,1020.14
2018-12-05T05:09:09.404Z,1020.11
2018-12-05T05:10:10.131Z,1020.13
2018-12-05T05:11:10.849Z,1020.13
2018-12-05T05:12:11.498Z,1020.14
2018-12-05T05:13:12.271Z,1020.13
2018-12-05T05:14:12.956Z,1020.14
2018-12-05T05:15:13.725Z,1020.18
2018-12-05T05:16:14.389Z,1020.12
2018-12-05T05:17:15.314Z,1020.13
2018-12-05T05:18:15.989Z,1020.15
2018-12-05T05:19:16.667Z,1020.14
2018-12-05T05:20:17.468Z,1020.16
2018-12-05T05:21:18.142Z,1020.12
2018-12-05T05:22:18.887Z,1020.10
2018-12-05T05:23:19.618Z,1020.09
2018-12-05T05:24:20.330Z,1020.09
2018-12-05T05:25:21.788Z,1020.04
2018-12-05T05:26:21.688Z,1020.03
2018-12-05T05:27:22.360Z,1020.03
2018-12-05T05:28:24.049Z,1020.03
2018-12-05T05:29:24.745Z,1020.04
2018-12-05T05:30:25.508Z,1020.06
2018-12-05T05:31:26.265Z,1020.05
2018-12-05T05:32:29.001Z,1020.03
2018-12-05T05:33:29.689Z,1020.02
2018-12-05T05:34:30.450Z,1019.95
2018-12-05T05:35:31.193Z,1019.94
2018-12-05T05:36:31.887Z,1019.94
2018-12-05T05:37:32.565Z,1019.90
2018-12-05T05:38:35.292Z,1019.88
2018-12-05T05:39:35.944Z,1019.89
2018-12-05T05:40:36.725Z,1019.90
2018-12-05T05:41:37.699Z,1019.97
2018-12-05T05:42:38.476Z,1019.91
2018-12-05T05:43:39.309Z,1019.94
2018-12-05T05:44:42.078Z,1019.98
2018-12-05T05:45:42.762Z,1020.01
2018-12-05T05:46:43.517Z,1020.02
2018-12-05T05:47:44.227Z,1020.01
2018-12-05T05:48:44.986Z,1020.07
2018-12-05T05:49:45.713Z,1020.06
2018-12-05T05:50:46.445Z,1020.08
2018-12-05T05:51:47.116Z,1020.08
2018-12-05T05:52:48.879Z,1020.08
2018-12-05T05:53:49.559Z,1020.04
2018-12-05T05:54:50.324Z,1020.07
2018-12-05T05:55:51.050Z,1020.05
2018-12-05T05:56:51.879Z,1020.11
2018-12-05T05:57:52.446Z,1020.14
2018-12-05T05:58:54.146Z,1020.16
2018-12-05T05:59:54.838Z,1020.23
2018-12-05T06:00:55.600Z,1020.21
2018-12-05T06:01:56.296Z,1020.20
2018-12-05T06:02:57.041Z,1020.23
2018-12-05T06:03:57.721Z,1020.24
2018-12-05T06:04:58.499Z,1020.24
2018-12-05T06:05:59.188Z,1020.21
2018-12-05T06:07:07.737Z,1020.18
2018-12-05T06:08:08.398Z,1020.24
2018-12-05T06:09:09.243Z,1020.27
2018-12-05T06:10:09.897Z,1020.25
2018-12-05T06:11:10.621Z,1020.24
2018-12-05T06:12:11.305Z,1020.20
2018-12-05T06:13:12.069Z,1020.16
2018-12-05T06:14:12.757Z,1020.18
2018-12-05T06:15:13.500Z,1020.19
2018-12-05T06:16:14.203Z,1020.16
2018-12-05T06:17:14.944Z,1020.13
2018-12-05T06:18:15.613Z,1020.14
2018-12-05T06:19:16.382Z,1020.11
2018-12-05T06:20:17.063Z,1020.09
2018-12-05T06:21:17.828Z,1020.11
2018-12-05T06:22:18.514Z,1020.14
2018-12-05T06:23:19.273Z,1020.15
2018-12-05T06:24:19.973Z,1020.18
2018-12-05T06:25:20.755Z,1020.26
2018-12-05T06:26:21.409Z,1020.21
2018-12-05T06:27:23.113Z,1020.22
2018-12-05T06:28:23.795Z,1020.23
2018-12-05T06:29:24.755Z,1020.21
2018-12-05T06:30:25.437Z,1020.24
2018-12-05T06:31:26.211Z,1020.20
2018-12-05T06:32:26.911Z,1020.22
2018-12-05T06:33:30.874Z,1020.23
2018-12-05T06:34:30.332Z,1020.23
2018-12-05T06:35:31.044Z,1020.21
2018-12-05T06:36:31.691Z,1020.20
2018-12-05T06:37:32.497Z,1020.18
2018-12-05T06:38:33.160Z,1020.21
2018-12-05T06:39:33.924Z,1020.19
2018-12-05T06:40:34.607Z,1020.20
2018-12-05T06:41:35.277Z,1020.22
2018-12-05T06:42:35.998Z,1020.22
2018-12-05T06:43:36.677Z,1020.25
2018-12-05T06:44:37.451Z,1020.20
2018-12-05T06:45:38.098Z,1020.20
2018-12-05T06:46:38.896Z,1020.18
2018-12-05T06:47:40.069Z,1020.16
2018-12-05T06:48:40.752Z,1020.16
2018-12-05T06:49:41.470Z,1020.13
2018-12-05T06:50:42.267Z,1020.16
2018-12-05T06:51:42.821Z,1020.13
2018-12-05T06:52:43.510Z,1020.17
2018-12-05T06:53:44.159Z,1020.17
2018-12-05T06:54:44.873Z,1020.19
2018-12-05T06:55:45.606Z,1020.22
2018-12-05T06:56:46.107Z,1020.24
2018-12-05T06:57:46.867Z,1020.21
2018-12-05T06:58:47.519Z,1020.22
2018-12-05T06:59:48.294Z,1020.18
2018-12-05T07:00:48.981Z,1020.16
2018-12-05T07:01:49.739Z,1020.14
2018-12-05T07:02:50.425Z,1020.14
2018-12-05T07:03:51.188Z,1020.20
2018-12-05T07:04:51.902Z,1020.18
2018-12-05T07:05:54.676Z,1020.20
2018-12-05T07:06:55.369Z,1020.23
2018-12-05T07:07:56.150Z,1020.24
2018-12-05T07:08:56.808Z,1020.23
2018-12-05T07:09:57.574Z,1020.24
2018-12-05T07:10:58.260Z,1020.18
2018-12-05T07:11:59.930Z,1020.18
2018-12-05T07:13:00.594Z,1020.21
2018-12-05T07:14:02.312Z,1020.16
2018-12-05T07:15:02.985Z,1020.19
2018-12-05T07:16:05.706Z,1020.15
2018-12-05T07:17:06.382Z,1020.11
2018-12-05T07:18:07.151Z,1020.11
2018-12-05T07:19:07.869Z,1020.13
2018-12-05T07:20:08.617Z,1020.15
2018-12-05T07:21:09.278Z,1020.16
2018-12-05T07:22:10.043Z,1020.17
2018-12-05T07:23:10.725Z,1020.17
2018-12-05T07:24:11.483Z,1020.08
2018-12-05T07:25:12.174Z,1020.12
2018-12-05T07:26:12.930Z,1020.12
2018-12-05T07:27:13.615Z,1020.11
2018-12-05T07:28:14.381Z,1020.17
2018-12-05T07:29:15.046Z,1020.14
2018-12-05T07:30:15.833Z,1020.15
2018-12-05T07:31:16.515Z,1020.18
2018-12-05T07:32:17.292Z,1020.19
2018-12-05T07:33:17.942Z,1020.17
2018-12-05T07:34:18.749Z,1020.19
2018-12-05T07:35:19.377Z,1020.16
2018-12-05T07:36:21.092Z,1020.19
2018-12-05T07:37:21.810Z,1020.17
2018-12-05T07:38:22.451Z,1020.13
2018-12-05T07:39:23.126Z,1020.15
2018-12-05T07:40:25.007Z,1020.17
2018-12-05T07:41:25.734Z,1020.10
2018-12-05T07:42:27.577Z,1020.14
2018-12-05T07:43:28.269Z,1020.13
2018-12-05T07:44:29.101Z,1020.16
2018-12-05T07:45:29.763Z,1020.17
2018-12-05T07:46:30.572Z,1020.09
2018-12-05T07:47:31.251Z,1020.13
2018-12-05T07:48:31.934Z,1020.12
2018-12-05T07:49:32.665Z,1020.15
2018-12-05T07:50:33.333Z,1020.10
2018-12-05T07:51:36.045Z,1020.14
2018-12-05T07:52:36.723Z,1020.09
2018-12-05T07:53:37.627Z,1020.10
2018-12-05T07:54:38.273Z,1020.09
2018-12-05T07:55:40.065Z,1020.07
2018-12-05T07:56:40.734Z,1020.14
2018-12-05T07:57:41.521Z,1020.13
2018-12-05T07:58:42.190Z,1020.13
2018-12-05T07:59:49.729Z,1020.16
2018-12-05T08:00:50.411Z,1020.13
2018-12-05T08:01:57.819Z,1020.07
2018-12-05T08:02:58.489Z,1020.06
2018-12-05T08:03:59.351Z,1020.03
2018-12-05T08:05:00.052Z,1020.03
2018-12-05T08:06:00.821Z,1020.02
2018-12-05T08:07:01.493Z,1020.00
2018-12-05T08:08:03.279Z,1019.98
2018-12-05T08:09:03.990Z,1019.96
2018-12-05T08:10:05.757Z,1019.94
2018-12-05T08:11:06.486Z,1019.94
2018-12-05T08:12:07.210Z,1019.89
2018-12-05T08:13:07.873Z,1019.89
2018-12-05T08:14:08.728Z,1019.88
2018-12-05T08:15:09.338Z,1019.89
2018-12-05T08:16:11.118Z,1019.89
2018-12-05T08:17:11.804Z,1019.89
2018-12-05T08:18:12.598Z,1019.88
2018-12-05T08:19:13.241Z,1019.91
2018-12-05T08:20:14.029Z,1019.92
2018-12-05T08:21:14.706Z,1019.94
2018-12-05T08:22:15.455Z,1019.89
2018-12-05T08:23:16.135Z,1019.90
2018-12-05T08:24:25.711Z,1019.87
2018-12-05T08:25:26.399Z,1019.88
2018-12-05T08:26:35.653Z,1019.86
2018-12-05T08:27:36.330Z,1019.90
2018-12-05T08:28:39.056Z,1019.88
2018-12-05T08:29:39.738Z,1019.87
2018-12-05T08:30:42.549Z,1019.86
2018-12-05T08:31:43.668Z,1019.85
2018-12-05T08:32:59.267Z,1019.88
2018-12-05T08:33:59.928Z,1019.90
2018-12-05T08:35:09.192Z,1019.87
2018-12-05T08:36:09.872Z,1019.85
2018-12-05T08:37:10.645Z,1019.79
2018-12-05T08:38:11.319Z,1019.80
2018-12-05T08:39:13.112Z,1019.76
2018-12-05T08:40:13.815Z,1019.80
2018-12-05T08:41:14.669Z,1019.82
2018-12-05T08:42:15.351Z,1019.85
2018-12-05T08:43:17.154Z,1019.83
2018-12-05T08:44:17.844Z,1019.85
2018-12-05T08:45:19.630Z,1019.82
2018-12-05T08:46:20.324Z,1019.86
2018-12-05T08:47:21.137Z,1019.86
2018-12-05T08:48:21.811Z,1019.80
2018-12-05T08:49:22.475Z,1019.76
2018-12-05T08:50:23.249Z,1019.79
2018-12-05T08:51:23.822Z,1019.75
2018-12-05T08:52:24.442Z,1019.73
2018-12-05T08:53:25.259Z,1019.65
2018-12-05T08:54:25.958Z,1019.71
2018-12-05T08:55:27.733Z,1019.68
2018-12-05T08:56:28.424Z,1019.68
2018-12-05T08:57:30.213Z,1019.68
2018-12-05T08:58:30.909Z,1019.64
2018-12-05T08:59:31.759Z,1019.66
2018-12-05T09:00:32.446Z,1019.61
2018-12-05T09:01:33.316Z,1019.63
2018-12-05T09:02:34.025Z,1019.62
2018-12-05T09:03:41.811Z,1019.62
2018-12-05T09:04:42.489Z,1019.59
2018-12-05T09:05:44.276Z,1019.61
2018-12-05T09:06:44.945Z,1019.60
2018-12-05T09:07:46.764Z,1019.59
2018-12-05T09:08:47.451Z,1019.59
2018-12-05T09:09:49.379Z,1019.59
2018-12-05T09:10:50.006Z,1019.54
2018-12-05T09:11:51.798Z,1019.54
2018-12-05T09:12:52.484Z,1019.56
2018-12-05T09:13:54.300Z,1019.54
2018-12-05T09:14:55.016Z,1019.55
2018-12-05T09:15:55.826Z,1019.52
2018-12-05T09:16:56.520Z,1019.54
2018-12-05T12:16:48.223Z,1017.13
2018-12-05T12:17:48.991Z,1017.09
2018-12-05T12:20:50.452Z,1017.04
2018-12-05T12:21:51.167Z,1016.99
2018-12-05T12:25:39.958Z,1016.93
2018-12-05T12:26:40.630Z,1016.90
2018-12-05T12:27:49.474Z,1016.87
2018-12-05T12:28:50.331Z,1016.89
2018-12-05T12:29:53.189Z,1016.86
2018-12-05T12:30:53.906Z,1016.84
2018-12-05T12:31:56.675Z,1016.79
2018-12-05T12:32:57.368Z,1016.80
2018-12-05T12:34:12.969Z,1016.74
2018-12-05T12:35:13.637Z,1016.74
2018-12-05T12:36:14.542Z,1016.75
2018-12-05T12:37:15.195Z,1016.79
2018-12-05T12:38:15.961Z,1016.79
2018-12-05T12:39:16.657Z,1016.79
2018-12-05T12:40:17.337Z,1016.80
2018-12-05T12:41:19.060Z,1016.81
2018-12-05T12:42:19.754Z,1016.77
2018-12-05T12:43:20.415Z,1016.80
2018-12-05T12:44:22.163Z,1016.74
2018-12-05T12:45:22.833Z,1016.73
2018-12-05T12:46:23.613Z,1016.71
2018-12-05T12:47:24.307Z,1016.74
2018-12-05T12:48:25.054Z,1016.64
2018-12-05T12:49:25.755Z,1016.64
2018-12-05T12:50:28.584Z,1016.58
2018-12-05T12:51:29.243Z,1016.59
2018-12-05T12:52:30.019Z,1016.56
2018-12-05T12:53:30.657Z,1016.57
2018-12-05T12:54:33.377Z,1016.61
2018-12-05T12:55:34.064Z,1016.61
2018-12-05T12:56:34.837Z,1016.61
2018-12-05T12:57:35.508Z,1016.58
2018-12-05T12:58:50.903Z,1016.51
2018-12-05T12:59:51.594Z,1016.52
2018-12-05T13:00:54.340Z,1016.45
2018-12-05T13:01:55.010Z,1016.46
2018-12-05T13:02:56.811Z,1016.44
2018-12-05T13:03:57.467Z,1016.39
2018-12-05T13:04:58.283Z,1016.41
2018-12-05T13:05:58.910Z,1016.36
2018-12-05T13:07:07.363Z,1016.41
2018-12-05T13:08:08.149Z,1016.40
2018-12-05T13:09:08.926Z,1016.41
2018-12-05T13:10:09.620Z,1016.39
2018-12-05T13:11:12.430Z,1016.37
2018-12-05T13:12:13.111Z,1016.31
2018-12-05T13:13:13.880Z,1016.31
2018-12-05T13:14:14.521Z,1016.27
2018-12-05T13:15:15.296Z,1016.21
2018-12-05T13:16:15.991Z,1016.23
2018-12-05T13:17:17.783Z,1016.26
2018-12-05T13:18:19.767Z,1016.27
2018-12-05T13:19:19.211Z,1016.22
2018-12-05T13:20:19.908Z,1016.22
2018-12-05T13:21:20.729Z,1016.23
2018-12-05T13:22:21.356Z,1016.25
2018-12-05T13:23:22.093Z,1016.25
2018-12-05T13:24:22.786Z,1016.22
2018-12-05T13:25:23.621Z,1016.20
2018-12-05T13:26:24.393Z,1016.23
2018-12-05T13:27:25.065Z,1016.18
2018-12-05T13:28:25.734Z,1016.22
2018-12-05T13:29:26.440Z,1016.17
2018-12-05T13:30:27.130Z,1016.15
2018-12-05T13:31:27.786Z,1016.12
2018-12-05T13:32:28.481Z,1016.11
2018-12-05T13:33:29.146Z,1016.09
2018-12-05T13:34:30.214Z,1016.03
2018-12-05T13:35:30.970Z,1016.08
2018-12-05T13:36:31.681Z,1016.03
2018-12-05T13:37:32.372Z,1016.04
2018-12-05T13:38:33.076Z,1015.99
2018-12-05T13:39:33.761Z,1015.96
2018-12-05T13:40:34.512Z,1015.94
2018-12-05T13:41:35.197Z,1015.97
2018-12-05T13:42:35.962Z,1015.97
2018-12-05T13:43:36.650Z,1015.88
2018-12-05T13:44:37.407Z,1015.90
2018-12-05T13:45:38.096Z,1015.83
2018-12-05T13:46:38.983Z,1015.83
2018-12-05T13:47:39.638Z,1015.81
2018-12-05T13:48:40.416Z,1015.83
2018-12-05T13:49:41.102Z,1015.82
2018-12-05T13:50:41.783Z,1015.79
2018-12-05T13:51:42.466Z,1015.78
2018-12-05T13:52:43.393Z,1015.76
2018-12-05T13:53:44.099Z,1015.76
2018-12-05T13:54:44.806Z,1015.78
2018-12-05T13:55:45.550Z,1015.73
2018-12-05T13:56:46.229Z,1015.73
2018-12-05T13:57:48.070Z,1015.74
2018-12-05T13:58:48.729Z,1015.70
2018-12-05T13:59:49.409Z,1015.68
2018-12-05T14:00:50.092Z,1015.64
2018-12-05T14:01:50.848Z,1015.60
2018-12-05T14:02:51.501Z,1015.59
2018-12-05T14:03:52.208Z,1015.62
2018-12-05T14:04:53.149Z,1015.66
2018-12-05T14:06:15.044Z,1015.61
2018-12-05T14:07:15.688Z,1015.58
2018-12-05T14:08:16.462Z,1015.59
2018-12-05T14:09:17.155Z,1015.57
2018-12-05T14:10:17.906Z,1015.59
2018-12-05T14:11:18.630Z,1015.54
2018-12-05T14:12:19.325Z,1015.55
2018-12-05T14:13:28.882Z,1015.51
2018-12-05T14:14:29.589Z,1015.55
2018-12-05T14:15:31.365Z,1015.51
2018-12-05T14:16:32.023Z,1015.49
2018-12-05T14:17:32.730Z,1015.53
2018-12-05T14:18:33.452Z,1015.46
2018-12-05T14:19:34.089Z,1015.49
2018-12-05T14:20:34.888Z,1015.48
2018-12-05T14:21:35.669Z,1015.40
2018-12-05T14:22:36.410Z,1015.39
2018-12-05T14:23:37.118Z,1015.41
2018-12-05T14:24:40.011Z,1015.29
2018-12-05T14:25:40.604Z,1015.32
2018-12-05T14:26:48.043Z,1015.31
2018-12-05T14:27:48.707Z,1015.26
2018-12-05T14:28:50.499Z,1015.23
2018-12-05T14:29:51.179Z,1015.18
2018-12-05T14:31:07.899Z,1015.16
2018-12-05T14:32:08.590Z,1015.14
2018-12-05T14:33:17.858Z,1015.11
2018-12-05T14:34:18.545Z,1015.07
2018-12-05T14:36:29.576Z,1015.12
2018-12-05T14:37:32.336Z,1015.10
2018-12-05T14:38:33.041Z,1015.15
2018-12-05T14:39:54.798Z,1015.14
2018-12-05T14:40:55.454Z,1015.08
2018-12-05T14:41:56.616Z,1015.11
2018-12-05T14:43:33.380Z,1015.10
2018-12-05T14:44:34.079Z,1015.11
2018-12-05T14:45:55.843Z,1015.09
2018-12-05T14:46:56.536Z,1015.05
2018-12-05T14:47:57.240Z,1015.01
2018-12-05T14:48:57.935Z,1015.04
2018-12-05T14:49:58.625Z,1015.03
2018-12-05T14:50:59.330Z,1015.05
2018-12-05T14:52:00.038Z,1015.01
2018-12-05T14:53:00.740Z,1014.95
2018-12-05T14:54:01.513Z,1014.95
2018-12-05T14:55:02.189Z,1014.94
2018-12-05T14:56:02.887Z,1014.92
2018-12-05T14:57:03.572Z,1014.87
2018-12-05T14:58:04.272Z,1014.84
2018-12-05T14:59:05.005Z,1014.86
2018-12-05T15:00:05.708Z,1014.84
2018-12-05T15:01:06.356Z,1014.83
2018-12-05T15:02:07.036Z,1014.84
2018-12-05T15:03:07.702Z,1014.86
2018-12-05T15:04:08.420Z,1014.81
2018-12-05T15:05:09.123Z,1014.79
2018-12-05T15:54:04.055Z,1014.02
2018-12-05T15:55:04.728Z,1014.00
2018-12-05T15:56:05.578Z,1013.98
2018-12-05T15:57:09.916Z,1013.97
